weather.gov     
National Weather Service

Terminal Aerodrome Forecast
NWS Homepage
This page is being discontinued on March 12, 2014.
The same data is available at this site. Please update your bookmarks.
Thank you, and we apologize for the inconvenience.
Please send an email to SR-SRH.Webmaster@noaa.gov with any concerns.


Current Version
Previous Version:    01  02  03  04  05  06  07  08  09  10  11  12  13  14  15  16  17  18  19  20  21  22  23  24  25  26  27  28  29  30  
   31  32  33  34  35  
[Printable]
945
FTUS43 KGRB 211700 RRA
TAFGRB
TAF
KGRB 211743Z 2118/2218 22009KT P6SM BKN120
     FM220000 19010KT P6SM FEW020 BKN120 WS015/21040KT
     FM220300 19011KT P6SM BKN020 OVC120 WS015/22045KT
     FM220600 21011KT P6SM SCT009 OVC020 WS015/23040KT
      TEMPO 2206/2210 4SM -FZDZ BR BKN009
     FM221000 21009KT 5SM -FZRA BR OVC007 WS015/24035KT
     FM221500 21009KT 5SM -DZ BR OVC009=


U.S. Dept. of Commerce
NOAA National Weather Service
1325 East West Highway
Silver Spring, MD 20910
E-mail: w-nws.webmaster@noaa.gov
Page last modified: May 16, 2007
NATIONAL WEATHER SERVICE: for Safety, for Work, for Fun - FOR LIFE